Tolosa, Spain
Current Conditions -  °F | °C
As of 9:30 PM on Saturday 24 Jan 2015 (Local Time) from LESO Reporting Station
Broken Clouds Broken Clouds  
Wind Chill: 42°   Ceiling: 4500
Heat Index: 48°   Visibility: 6mi
Dew Point: 41°   Wind: 18mph
Humidity: 76%   Direction: 20°NNE
Pressure: 30.5"   Gusts: NA
Location:  43.13°N, 2.08°W
Report Text: LESO 242030Z 02016KT 340V040 9999 FEW024 SCT038 BKN045 09/05 Q1033
Loading
Personal Weather Stations






























Interactive Weather Map New forecast layout! Learn more

10-Day Weather Forecast

Advertisements
Track Severe Weather on mobile